createdAt,value
2019-03-31T00:03:01.322Z,100959.39
2019-03-31T00:05:48.335Z,100961.20
2019-03-31T00:11:41.579Z,100965.33
2019-03-31T00:14:28.737Z,100962.02
2019-03-31T00:17:16.074Z,100961.34
2019-03-31T00:38:55.072Z,100965.60
2019-03-31T00:41:42.132Z,100963.94
2019-03-31T00:44:36.472Z,100964.80
2019-03-31T00:50:37.034Z,100965.77
2019-03-31T00:53:24.092Z,100960.22
2019-03-31T00:56:18.562Z,100962.14
2019-03-31T00:59:05.671Z,100955.91
2019-03-31T01:01:55.447Z,100962.11
2019-03-31T01:04:42.476Z,100958.69
2019-03-31T01:07:29.478Z,100970.31
2019-03-31T01:10:17.524Z,100966.61
2019-03-31T01:13:04.418Z,100969.45
2019-03-31T01:25:10.116Z,100978.52
2019-03-31T01:27:57.215Z,100969.44
2019-03-31T01:30:44.648Z,100976.93
2019-03-31T01:33:31.665Z,100973.46
2019-03-31T01:36:18.762Z,100979.23
2019-03-31T01:39:05.977Z,100977.17
2019-03-31T01:41:53.005Z,100979.55
2019-03-31T01:44:39.746Z,100983.23
2019-03-31T01:47:27.030Z,100987.91
2019-03-31T01:50:13.925Z,100997.17
2019-03-31T01:53:00.923Z,100997.58
2019-03-31T02:11:19.267Z,101000.95
2019-03-31T02:14:07.002Z,101001.34
2019-03-31T02:16:53.692Z,101004.61
2019-03-31T02:32:23.961Z,101003.41
2019-03-31T02:35:09.004Z,101007.87
2019-03-31T03:12:11.958Z,101012.97
2019-03-31T03:15:00.565Z,101020.00
2019-03-31T03:17:47.266Z,101013.92
2019-03-31T03:20:34.084Z,101024.07
2019-03-31T03:23:21.046Z,101020.67
2019-03-31T03:26:08.083Z,101024.75
2019-03-31T03:28:54.830Z,101024.09
2019-03-31T03:31:42.223Z,101026.38
2019-03-31T03:34:44.005Z,101027.84
2019-03-31T03:56:21.707Z,101037.94
2019-03-31T04:17:50.140Z,101046.03
2019-03-31T04:20:39.352Z,101061.11
2019-03-31T04:23:24.119Z,101055.11
2019-03-31T04:35:31.192Z,101072.72
2019-03-31T04:38:17.940Z,101077.61
2019-03-31T04:56:34.850Z,101084.03
2019-03-31T04:59:36.325Z,101088.98
2019-03-31T05:02:27.058Z,101090.94
2019-03-31T05:05:10.995Z,101085.94
2019-03-31T05:17:29.924Z,101104.17
2019-03-31T05:20:17.517Z,101120.44
2019-03-31T05:23:04.594Z,101119.13
2019-03-31T05:41:23.547Z,101128.81
2019-03-31T05:44:10.847Z,101136.73
2019-03-31T06:02:39.171Z,101145.72
2019-03-31T06:05:26.346Z,101149.92
2019-03-31T06:08:13.206Z,101154.67
2019-03-31T06:26:34.054Z,101182.37
2019-03-31T06:29:30.367Z,101185.55
2019-03-31T06:54:15.511Z,101226.67
2019-03-31T06:57:17.072Z,101230.08
2019-03-31T07:00:03.936Z,101231.96
2019-03-31T07:09:17.645Z,101242.50
2019-03-31T07:12:05.637Z,101251.45
2019-03-31T07:14:52.845Z,101257.23
2019-03-31T07:20:46.030Z,101261.47
2019-03-31T07:32:51.119Z,101269.13
2019-03-31T07:35:45.414Z,101266.09
2019-03-31T07:41:53.164Z,101271.28
2019-03-31T07:44:39.870Z,101270.63
2019-03-31T07:47:27.289Z,101281.09
2019-03-31T07:50:14.229Z,101288.86
2019-03-31T07:53:01.337Z,101290.58
2019-03-31T08:05:07.452Z,101299.07
2019-03-31T08:07:54.747Z,101312.98
2019-03-31T08:10:41.451Z,101314.64
2019-03-31T09:00:18.330Z,101363.41
2019-03-31T09:03:05.472Z,101361.94
2019-03-31T09:06:02.256Z,101365.50
2019-03-31T09:08:54.169Z,101367.43
2019-03-31T09:11:41.435Z,101379.78
2019-03-31T09:20:40.373Z,101385.51
2019-03-31T09:23:27.069Z,101388.59
2019-03-31T09:32:27.368Z,101395.53
2019-03-31T09:35:14.640Z,101391.03
2019-03-31T09:38:01.815Z,101400.27
2019-03-31T09:40:48.990Z,101404.34
2019-03-31T09:43:35.941Z,101395.38
2019-03-31T09:46:23.166Z,101401.95
2019-03-31T09:49:10.542Z,101398.75
2019-03-31T09:52:05.657Z,101400.89
2019-03-31T09:54:52.827Z,101399.77
2019-03-31T09:57:40.020Z,101392.25
2019-03-31T10:00:27.509Z,101395.16
2019-03-31T10:03:14.920Z,101400.75
2019-03-31T10:06:10.687Z,101399.06
2019-03-31T10:08:49.038Z,101397.97
2019-03-31T10:17:48.766Z,101403.36
2019-03-31T10:20:35.791Z,101402.14
2019-03-31T10:23:24.033Z,101400.53
2019-03-31T10:26:11.277Z,101401.56
2019-03-31T10:28:58.571Z,101404.28
2019-03-31T10:31:46.096Z,101394.06
2019-03-31T10:34:33.498Z,101394.15
2019-03-31T10:40:26.356Z,101394.98
2019-03-31T10:43:13.420Z,101397.75
2019-03-31T10:46:08.381Z,101407.53
2019-03-31T10:48:55.251Z,101415.08
2019-03-31T10:51:43.334Z,101408.44
2019-03-31T10:54:30.657Z,101407.06
2019-03-31T10:57:18.570Z,101411.02
2019-03-31T11:00:09.213Z,101414.88
2019-03-31T11:02:56.725Z,101409.70
2019-03-31T11:05:44.098Z,101413.58
2019-03-31T11:08:31.315Z,101416.98
2019-03-31T11:11:18.695Z,101420.25
2019-03-31T11:14:05.702Z,101425.73
2019-03-31T11:16:52.515Z,101427.84
2019-03-31T11:19:39.997Z,101429.96
2019-03-31T11:25:39.829Z,101424.55
2019-03-31T11:28:34.605Z,101421.28
2019-03-31T11:31:21.981Z,101423.77
2019-03-31T11:34:09.275Z,101416.40
2019-03-31T11:36:55.881Z,101415.34
2019-03-31T11:39:43.134Z,101417.72
2019-03-31T11:42:45.392Z,101413.09
2019-03-31T11:45:32.122Z,101412.39
2019-03-31T11:48:19.026Z,101414.11
2019-03-31T11:51:06.428Z,101410.56
2019-03-31T11:53:53.560Z,101406.23
2019-03-31T11:56:40.438Z,101413.36
2019-03-31T11:59:27.547Z,101414.73
2019-03-31T12:02:26.421Z,101412.78
2019-03-31T12:05:06.188Z,101418.87
2019-03-31T12:07:50.978Z,101407.80
2019-03-31T12:10:37.970Z,101404.54
2019-03-31T12:13:25.614Z,101408.09
2019-03-31T12:16:12.504Z,101403.57
2019-03-31T12:18:59.341Z,101410.45
2019-03-31T12:21:46.024Z,101410.16
2019-03-31T12:24:33.168Z,101413.36
2019-03-31T12:27:20.491Z,101411.16
2019-03-31T12:30:07.917Z,101413.87
2019-03-31T12:32:55.538Z,101409.33
2019-03-31T12:38:48.908Z,101396.34
2019-03-31T12:41:35.498Z,101405.12
2019-03-31T12:44:25.121Z,101403.25
2019-03-31T12:50:17.416Z,101408.83
2019-03-31T12:53:04.133Z,101412.73
2019-03-31T12:55:59.914Z,101412.87
2019-03-31T12:58:38.287Z,101411.67
2019-03-31T13:01:25.834Z,101413.71
2019-03-31T13:04:12.725Z,101412.45
2019-03-31T13:06:59.421Z,101418.97
2019-03-31T13:09:53.528Z,101426.56
2019-03-31T13:12:41.063Z,101422.66
2019-03-31T13:15:28.354Z,101425.14
2019-03-31T13:18:22.763Z,101420.56
2019-03-31T13:21:09.911Z,101416.45
2019-03-31T13:23:57.350Z,101413.80
2019-03-31T13:26:44.503Z,101418.41
2019-03-31T13:29:32.432Z,101411.94
2019-03-31T13:32:19.832Z,101415.03
2019-03-31T13:35:08.597Z,101410.53
2019-03-31T13:37:54.374Z,101405.41
2019-03-31T13:40:41.838Z,101413.22
2019-03-31T13:43:28.837Z,101411.47
2019-03-31T13:46:15.751Z,101412.19
2019-03-31T13:49:02.675Z,101410.22
2019-03-31T13:51:49.574Z,101411.59
2019-03-31T13:54:36.475Z,101404.62
2019-03-31T13:57:39.782Z,101410.50
2019-03-31T14:00:34.364Z,101403.34
2019-03-31T14:03:21.774Z,101412.04
2019-03-31T14:06:09.519Z,101407.47
2019-03-31T14:08:57.204Z,101406.63
2019-03-31T14:14:57.359Z,101401.18
2019-03-31T14:17:44.191Z,101409.98
2019-03-31T14:20:30.927Z,101405.19
2019-03-31T14:23:18.184Z,101410.02
2019-03-31T14:26:05.117Z,101410.63
2019-03-31T14:28:52.000Z,101408.66
2019-03-31T14:31:39.919Z,101403.91
2019-03-31T14:34:26.892Z,101401.49
2019-03-31T14:37:14.432Z,101401.59
2019-03-31T14:40:01.646Z,101408.81
2019-03-31T14:42:48.372Z,101403.20
2019-03-31T14:48:41.697Z,101397.12
2019-03-31T14:51:28.586Z,101404.75
2019-03-31T14:54:15.539Z,101400.23
2019-03-31T14:57:02.960Z,101393.98
2019-03-31T14:59:49.781Z,101400.74
2019-03-31T15:02:37.474Z,101396.33
2019-03-31T15:05:25.038Z,101398.16
2019-03-31T15:14:24.326Z,101397.50
2019-03-31T15:17:11.348Z,101393.80
2019-03-31T15:19:59.594Z,101389.67
2019-03-31T15:22:51.332Z,101392.23
2019-03-31T15:25:33.757Z,101389.89
2019-03-31T15:28:20.602Z,101386.55
2019-03-31T15:31:07.849Z,101392.48
2019-03-31T15:33:55.013Z,101389.87
2019-03-31T15:36:42.121Z,101383.58
2019-03-31T15:39:30.113Z,101394.04
2019-03-31T15:42:17.267Z,101396.58
2019-03-31T15:48:10.113Z,101402.52
2019-03-31T15:50:56.738Z,101398.56
2019-03-31T15:53:44.357Z,101401.52
2019-03-31T15:56:31.591Z,101403.07
2019-03-31T15:59:18.837Z,101400.31
2019-03-31T16:08:32.314Z,101399.63
2019-03-31T16:17:45.701Z,101404.34
2019-03-31T16:20:32.979Z,101406.27
2019-03-31T16:23:20.025Z,101408.52
2019-03-31T16:26:06.904Z,101400.36
2019-03-31T16:28:54.617Z,101394.62
2019-03-31T16:34:47.629Z,101395.98
2019-03-31T16:37:34.946Z,101394.45
2019-03-31T16:40:22.629Z,101393.47
2019-03-31T16:43:13.066Z,101397.45
2019-03-31T16:46:00.451Z,101396.59
2019-03-31T16:48:47.545Z,101396.80
2019-03-31T16:51:34.399Z,101393.55
2019-03-31T16:54:35.735Z,101398.92
2019-03-31T16:57:37.002Z,101392.38
2019-03-31T17:06:36.507Z,101401.73
2019-03-31T17:09:24.133Z,101400.41
2019-03-31T17:12:11.229Z,101404.20
2019-03-31T17:21:11.485Z,101407.55
2019-03-31T17:27:04.839Z,101417.88
2019-03-31T17:29:51.903Z,101413.59
2019-03-31T17:32:38.679Z,101418.68
2019-03-31T17:51:04.952Z,101436.08
2019-03-31T17:53:51.650Z,101440.09
2019-03-31T17:56:39.184Z,101441.67
2019-03-31T18:02:31.998Z,101446.50
2019-03-31T18:05:18.754Z,101446.73
2019-03-31T18:20:32.100Z,101462.05
2019-03-31T18:48:09.872Z,101501.22
2019-03-31T18:50:57.016Z,101497.80
2019-03-31T18:54:02.621Z,101500.91
2019-03-31T18:59:56.095Z,101511.68
2019-03-31T19:02:43.379Z,101516.83
2019-03-31T19:12:13.535Z,101531.39
2019-03-31T19:24:39.656Z,101527.56
2019-03-31T19:27:35.413Z,101535.45
2019-03-31T19:30:38.265Z,101533.04
2019-03-31T19:59:42.745Z,101550.84
2019-03-31T20:02:41.801Z,101552.84
2019-03-31T20:53:31.982Z,101590.27
2019-03-31T20:56:19.062Z,101593.38
2019-03-31T20:59:05.956Z,101598.81
2019-03-31T21:01:53.169Z,101604.62
2019-03-31T21:07:55.879Z,101604.77
2019-03-31T21:10:49.802Z,101605.60
2019-03-31T21:13:36.693Z,101604.75
2019-03-31T21:16:24.628Z,101611.30
2019-03-31T21:25:25.049Z,101615.86
2019-03-31T21:34:24.086Z,101617.77
2019-03-31T21:37:10.873Z,101617.88
2019-03-31T21:40:11.618Z,101621.03
2019-03-31T21:42:58.246Z,101626.39
2019-03-31T21:45:45.446Z,101626.02
2019-03-31T22:39:12.090Z,101653.35
2019-03-31T22:41:59.114Z,101653.36
2019-03-31T22:44:47.482Z,101662.08
2019-03-31T22:47:34.315Z,101652.06
2019-03-31T23:18:46.739Z,101667.81
2019-03-31T23:21:33.591Z,101662.59
2019-03-31T23:40:25.001Z,101665.05
